createdAt,value
2019-03-21T00:00:45.692Z,163.75
2019-03-21T00:01:59.383Z,121.00
2019-03-21T00:03:01.658Z,118.00
2019-03-21T00:04:11.680Z,123.40
2019-03-21T00:05:14.406Z,117.00
2019-03-21T00:06:16.298Z,108.40
2019-03-21T00:07:18.413Z,112.80
2019-03-21T00:08:20.564Z,116.80
2019-03-21T00:09:22.679Z,87.60
2019-03-21T00:10:33.048Z,104.40
2019-03-21T00:12:00.206Z,114.40
2019-03-21T00:13:02.601Z,108.80
2019-03-21T00:14:13.378Z,114.60
2019-03-21T00:15:23.931Z,95.80
2019-03-21T00:16:25.993Z,112.00
2019-03-21T00:17:44.539Z,115.80
2019-03-21T00:18:47.273Z,123.80
2019-03-21T00:19:49.605Z,104.60
2019-03-21T00:20:51.947Z,116.60
2019-03-21T00:21:54.079Z,95.00
2019-03-21T00:22:56.160Z,105.40
2019-03-21T00:23:58.502Z,94.60
2019-03-21T00:25:00.438Z,110.00
2019-03-21T00:26:02.891Z,93.00
2019-03-21T00:27:05.126Z,89.00
2019-03-21T00:28:07.252Z,91.00
2019-03-21T00:29:09.311Z,94.80
2019-03-21T00:30:16.639Z,87.60
2019-03-21T00:31:18.814Z,82.60
2019-03-21T00:32:20.799Z,80.60
2019-03-21T00:33:22.818Z,83.80
2019-03-21T00:34:25.753Z,86.20
2019-03-21T00:35:28.782Z,118.60
2019-03-21T00:36:30.936Z,122.00
2019-03-21T00:37:33.204Z,90.00
2019-03-21T00:38:35.418Z,97.60
2019-03-21T00:39:38.376Z,102.40
2019-03-21T00:40:44.336Z,99.40
2019-03-21T00:41:47.439Z,89.00
2019-03-21T00:42:49.898Z,97.80
2019-03-21T00:43:52.501Z,95.40
2019-03-21T00:44:54.836Z,93.00
2019-03-21T00:45:57.040Z,79.80
2019-03-21T00:46:59.180Z,99.60
2019-03-21T00:48:03.899Z,100.60
2019-03-21T00:49:05.847Z,90.00
2019-03-21T00:50:13.813Z,106.80
2019-03-21T00:51:15.827Z,102.80
2019-03-21T00:52:17.729Z,114.20
2019-03-21T00:53:19.956Z,95.00
2019-03-21T00:54:21.649Z,99.00
2019-03-21T00:55:28.856Z,112.40
2019-03-21T00:56:30.985Z,108.60
2019-03-21T00:57:33.255Z,98.40
2019-03-21T00:58:35.351Z,100.60
2019-03-21T00:59:37.862Z,105.40
2019-03-21T01:00:47.865Z,92.40
2019-03-21T01:01:50.268Z,98.40
2019-03-21T01:02:54.382Z,103.60
2019-03-21T01:03:57.497Z,95.60
2019-03-21T01:04:59.535Z,98.60
2019-03-21T01:06:02.042Z,97.20
2019-03-21T01:07:05.034Z,90.20
2019-03-21T01:08:07.415Z,101.20
2019-03-21T01:09:13.590Z,102.00
2019-03-21T01:10:23.505Z,98.00
2019-03-21T01:11:25.584Z,103.60
2019-03-21T01:12:27.841Z,99.60
2019-03-21T01:13:34.528Z,92.00
2019-03-21T01:14:36.470Z,90.40
2019-03-21T01:15:38.344Z,97.20
2019-03-21T01:16:40.382Z,95.40
2019-03-21T01:17:42.541Z,95.00
2019-03-21T01:18:48.444Z,102.60
2019-03-21T01:19:50.731Z,112.00
2019-03-21T01:20:53.128Z,94.80
2019-03-21T01:21:55.255Z,94.75
2019-03-21T01:22:57.363Z,105.20
2019-03-21T01:23:59.343Z,103.20
2019-03-21T01:25:01.206Z,101.20
2019-03-21T01:26:10.429Z,94.80
2019-03-21T01:27:12.720Z,102.60
2019-03-21T01:28:14.380Z,96.00
2019-03-21T01:29:16.600Z,98.60
2019-03-21T01:30:19.956Z,97.60
2019-03-21T01:31:22.027Z,104.60
2019-03-21T01:32:24.091Z,116.00
2019-03-21T01:33:26.092Z,106.00
2019-03-21T01:34:28.036Z,98.40
2019-03-21T01:35:30.183Z,92.80
2019-03-21T01:36:32.267Z,98.20
2019-03-21T01:37:34.959Z,92.80
2019-03-21T01:38:37.065Z,93.80
2019-03-21T01:39:39.022Z,97.60
2019-03-21T01:40:52.101Z,93.40
2019-03-21T01:41:55.755Z,96.00
2019-03-21T01:42:57.982Z,99.60
2019-03-21T01:44:00.147Z,97.40
2019-03-21T01:45:12.925Z,95.60
2019-03-21T01:46:19.638Z,93.40
2019-03-21T01:47:21.980Z,93.60
2019-03-21T01:48:24.033Z,94.40
2019-03-21T01:49:25.942Z,94.40
2019-03-21T01:50:35.117Z,89.00
2019-03-21T01:51:36.979Z,98.20
2019-03-21T01:52:39.203Z,90.60
2019-03-21T01:53:41.183Z,91.60
2019-03-21T01:54:42.877Z,95.00
2019-03-21T01:55:45.372Z,90.80
2019-03-21T01:56:49.369Z,92.20
2019-03-21T01:57:51.342Z,92.20
2019-03-21T01:58:53.451Z,91.20
2019-03-21T01:59:55.833Z,94.20
2019-03-21T02:00:57.682Z,90.80
2019-03-21T02:02:00.073Z,93.80
2019-03-21T02:03:02.135Z,94.20
2019-03-21T02:04:03.933Z,96.00
2019-03-21T02:05:09.613Z,92.20
2019-03-21T02:06:11.915Z,92.80
2019-03-21T02:07:14.436Z,93.20
2019-03-21T02:08:16.412Z,92.80
2019-03-21T02:09:18.363Z,90.80
2019-03-21T02:10:20.694Z,116.00
2019-03-21T02:11:22.836Z,95.20
2019-03-21T02:12:24.686Z,95.20
2019-03-21T02:13:26.450Z,91.20
2019-03-21T02:14:28.852Z,91.00
2019-03-21T02:15:32.826Z,87.80
2019-03-21T02:16:35.478Z,85.60
2019-03-21T02:17:37.800Z,87.20
2019-03-21T02:18:40.008Z,90.20
2019-03-21T02:19:41.726Z,88.40
2019-03-21T02:20:43.977Z,89.60
2019-03-21T02:21:45.996Z,86.20
2019-03-21T02:22:48.244Z,81.20
2019-03-21T02:23:50.278Z,82.00
2019-03-21T02:24:52.030Z,85.00
2019-03-21T02:25:54.425Z,79.80
2019-03-21T02:26:56.555Z,82.40
2019-03-21T02:27:58.496Z,80.80
2019-03-21T02:29:00.745Z,89.80
2019-03-21T02:30:14.494Z,91.00
2019-03-21T02:31:16.834Z,93.60
2019-03-21T02:32:18.913Z,96.80
2019-03-21T02:33:38.439Z,89.60
2019-03-21T02:34:40.129Z,88.40
2019-03-21T02:35:42.535Z,85.80
2019-03-21T02:36:45.248Z,96.20
2019-03-21T02:37:47.463Z,87.20
2019-03-21T02:38:49.661Z,93.80
2019-03-21T02:39:59.574Z,88.80
2019-03-21T02:41:00.792Z,91.20
2019-03-21T02:42:03.014Z,93.00
2019-03-21T02:43:04.869Z,90.40
2019-03-21T02:44:07.009Z,91.60
2019-03-21T02:45:12.850Z,90.00
2019-03-21T02:46:14.827Z,85.60
2019-03-21T02:47:16.970Z,85.20
2019-03-21T02:48:19.341Z,94.20
2019-03-21T02:49:21.493Z,91.80
2019-03-21T02:50:28.349Z,85.60
2019-03-21T02:51:30.224Z,88.40
2019-03-21T02:52:32.216Z,81.00
2019-03-21T02:53:34.194Z,82.80
2019-03-21T02:54:36.239Z,76.00
2019-03-21T02:55:38.574Z,83.80
2019-03-21T02:56:40.625Z,79.20
2019-03-21T02:57:42.296Z,82.40
2019-03-21T02:58:44.289Z,79.00
2019-03-21T02:59:46.390Z,77.00
2019-03-21T03:00:48.217Z,75.20
2019-03-21T03:01:50.546Z,73.20
2019-03-21T03:02:55.418Z,83.60
2019-03-21T03:03:57.392Z,74.80
2019-03-21T03:04:59.384Z,81.20
2019-03-21T03:06:01.514Z,79.20
2019-03-21T03:07:05.056Z,79.60
2019-03-21T03:08:08.604Z,79.80
2019-03-21T03:09:10.825Z,77.20
2019-03-21T03:10:24.013Z,85.40
2019-03-21T03:11:26.108Z,78.80
2019-03-21T03:12:28.298Z,76.60
2019-03-21T03:13:29.976Z,78.40
2019-03-21T03:14:32.226Z,75.00
2019-03-21T03:15:36.213Z,78.60
2019-03-21T03:16:38.310Z,68.80
2019-03-21T03:17:40.500Z,67.20
2019-03-21T03:18:42.360Z,67.40
2019-03-21T03:19:44.115Z,64.60
2019-03-21T03:20:46.358Z,65.00
2019-03-21T03:21:48.708Z,70.00
2019-03-21T03:22:51.065Z,67.00
2019-03-21T03:23:53.115Z,70.60
2019-03-21T03:24:54.982Z,69.20
2019-03-21T03:25:57.689Z,66.20
2019-03-21T03:26:59.864Z,65.00
2019-03-21T03:28:13.231Z,63.20
2019-03-21T03:29:17.404Z,61.60
2019-03-21T03:30:23.218Z,66.80
2019-03-21T03:31:25.025Z,64.60
2019-03-21T03:32:26.981Z,75.20
2019-03-21T03:33:29.282Z,71.20
2019-03-21T03:34:32.708Z,74.20
2019-03-21T03:35:34.889Z,56.80
2019-03-21T03:36:37.050Z,65.20
2019-03-21T03:37:41.428Z,70.80
2019-03-21T03:38:44.409Z,56.00
2019-03-21T03:39:46.250Z,59.40
2019-03-21T03:40:56.673Z,71.20
2019-03-21T03:41:58.630Z,67.80
2019-03-21T03:43:00.274Z,62.60
2019-03-21T03:44:02.472Z,62.60
2019-03-21T03:45:19.234Z,64.60
2019-03-21T03:46:21.392Z,63.60
2019-03-21T03:47:23.835Z,67.40
2019-03-21T03:48:27.289Z,61.80
2019-03-21T03:49:29.514Z,60.00
2019-03-21T03:50:31.828Z,62.00
2019-03-21T03:51:33.816Z,59.40
2019-03-21T03:52:36.084Z,61.00
2019-03-21T03:53:38.196Z,63.60
2019-03-21T03:54:40.268Z,60.40
2019-03-21T03:55:42.585Z,67.20
2019-03-21T03:56:44.944Z,64.00
2019-03-21T03:58:04.684Z,69.80
2019-03-21T03:59:07.401Z,71.00
2019-03-21T04:00:15.190Z,80.60
2019-03-21T04:01:18.007Z,74.00
2019-03-21T04:02:21.430Z,78.00
2019-03-21T04:03:25.788Z,80.00
2019-03-21T04:04:28.796Z,80.00
2019-03-21T04:05:31.278Z,83.60
2019-03-21T04:06:33.501Z,83.00
2019-03-21T04:07:35.921Z,89.40
2019-03-21T04:08:38.475Z,82.80
2019-03-21T04:09:40.422Z,84.40
2019-03-21T04:10:54.942Z,85.00
2019-03-21T04:11:57.298Z,82.60
2019-03-21T04:12:59.135Z,85.80
2019-03-21T04:14:01.349Z,94.80
2019-03-21T04:15:09.059Z,111.00
2019-03-21T04:16:11.271Z,126.40
2019-03-21T04:17:15.377Z,122.60
2019-03-21T04:18:20.903Z,86.60
2019-03-21T04:19:23.035Z,88.20
2019-03-21T04:20:44.728Z,92.20
2019-03-21T04:21:46.711Z,88.40
2019-03-21T04:22:49.251Z,95.40
2019-03-21T04:23:51.669Z,87.20
2019-03-21T04:24:53.765Z,76.00
2019-03-21T04:26:13.655Z,71.00
2019-03-21T04:27:15.683Z,69.20
2019-03-21T04:28:20.575Z,68.40
2019-03-21T04:29:23.001Z,82.20
2019-03-21T04:30:25.146Z,81.80
2019-03-21T04:31:28.701Z,81.20
2019-03-21T04:32:30.673Z,75.20
2019-03-21T04:33:32.564Z,67.60
2019-03-21T04:34:35.621Z,64.80
2019-03-21T04:35:37.904Z,69.80
2019-03-21T04:36:40.118Z,64.60
2019-03-21T04:37:43.433Z,68.60
2019-03-21T04:38:45.445Z,61.00
2019-03-21T04:39:47.151Z,62.40
2019-03-21T04:40:49.131Z,59.60
2019-03-21T04:41:51.344Z,60.60
2019-03-21T04:42:53.745Z,60.00
2019-03-21T04:43:55.896Z,56.40
2019-03-21T04:44:58.244Z,60.20
2019-03-21T04:46:03.786Z,55.60
2019-03-21T04:47:04.485Z,61.60
2019-03-21T04:48:06.548Z,60.80
2019-03-21T04:49:08.226Z,58.20
2019-03-21T04:50:18.104Z,55.60
2019-03-21T04:51:20.190Z,61.60
2019-03-21T04:52:22.333Z,62.40
2019-03-21T04:53:24.669Z,57.20
2019-03-21T04:54:26.484Z,58.60
2019-03-21T04:55:28.658Z,55.80
2019-03-21T04:56:30.957Z,57.80
2019-03-21T04:57:34.378Z,64.20
2019-03-21T04:58:36.446Z,73.80
2019-03-21T04:59:38.489Z,64.40
2019-03-21T05:00:49.206Z,68.20
2019-03-21T05:01:51.184Z,68.20
2019-03-21T05:02:56.971Z,65.20
2019-03-21T05:03:59.298Z,57.40
2019-03-21T05:05:01.425Z,59.80
2019-03-21T05:06:03.729Z,60.00
2019-03-21T05:07:05.574Z,59.80
2019-03-21T05:08:07.708Z,57.40
2019-03-21T05:09:13.319Z,59.00
2019-03-21T05:10:16.104Z,59.00
2019-03-21T05:11:18.277Z,58.00
2019-03-21T05:12:19.991Z,59.60
2019-03-21T05:13:22.021Z,59.00
2019-03-21T05:14:25.119Z,57.20
2019-03-21T05:15:40.006Z,59.00
2019-03-21T05:16:43.015Z,58.40
2019-03-21T05:17:46.757Z,66.80
2019-03-21T05:18:57.159Z,67.60
2019-03-21T05:19:59.337Z,61.40
2019-03-21T05:21:05.803Z,62.60
2019-03-21T05:22:07.700Z,64.60
2019-03-21T05:23:09.954Z,97.00
2019-03-21T05:24:13.123Z,236.00
2019-03-21T05:25:15.219Z,300.25
2019-03-21T05:26:17.479Z,138.50
2019-03-21T05:27:19.504Z,123.40
2019-03-21T05:28:22.004Z,175.75
2019-03-21T05:29:24.371Z,172.75
2019-03-21T05:30:54.802Z,156.75
2019-03-21T05:31:57.043Z,102.40
2019-03-21T05:32:59.201Z,97.60
2019-03-21T05:34:02.387Z,89.40
2019-03-21T05:35:08.134Z,90.00
2019-03-21T05:36:10.012Z,96.40
2019-03-21T05:37:11.712Z,93.80
2019-03-21T05:38:14.386Z,90.60
2019-03-21T05:39:16.796Z,88.60
2019-03-21T05:40:19.966Z,73.00
2019-03-21T05:41:22.662Z,94.80
2019-03-21T05:42:25.111Z,88.00
2019-03-21T05:43:47.932Z,72.00
2019-03-21T05:44:50.223Z,69.60
2019-03-21T05:45:52.022Z,71.20
2019-03-21T05:46:54.082Z,78.40
2019-03-21T05:47:56.231Z,74.20
2019-03-21T05:48:58.149Z,58.40
2019-03-21T05:50:00.380Z,59.40
2019-03-21T05:51:02.805Z,58.00
2019-03-21T05:52:05.772Z,56.20
2019-03-21T05:53:07.983Z,60.20
2019-03-21T05:54:10.376Z,59.20
2019-03-21T05:55:12.747Z,57.00
2019-03-21T05:56:14.893Z,60.20
2019-03-21T05:57:17.254Z,59.40
2019-03-21T05:58:20.014Z,61.60
2019-03-21T05:59:23.245Z,57.00
2019-03-21T06:00:38.077Z,59.60
2019-03-21T06:01:40.225Z,59.40
2019-03-21T06:02:42.287Z,56.00
2019-03-21T06:03:51.695Z,56.00
2019-03-21T06:04:54.075Z,56.60
2019-03-21T06:06:01.957Z,53.60
2019-03-21T06:07:24.799Z,53.20
2019-03-21T06:08:31.546Z,57.00
2019-03-21T06:09:33.293Z,57.00
2019-03-21T06:10:35.198Z,57.40
2019-03-21T06:11:42.604Z,56.40
2019-03-21T06:12:45.485Z,59.40
2019-03-21T06:13:47.573Z,63.00
2019-03-21T06:14:57.978Z,61.60
2019-03-21T06:16:08.583Z,68.00
2019-03-21T06:17:10.572Z,66.00
2019-03-21T06:18:35.218Z,66.60
2019-03-21T06:19:45.597Z,62.60
2019-03-21T06:20:59.335Z,66.00
2019-03-21T06:22:12.623Z,69.00
2019-03-21T06:23:35.723Z,64.40
2019-03-21T06:24:58.344Z,67.40
2019-03-21T06:26:14.579Z,66.20
2019-03-21T06:27:29.600Z,67.40
2019-03-21T06:28:31.648Z,64.40
2019-03-21T06:29:33.639Z,66.80
2019-03-21T06:30:35.986Z,77.60
2019-03-21T06:31:37.998Z,88.60
2019-03-21T06:32:40.118Z,92.80
2019-03-21T06:33:42.386Z,90.20
2019-03-21T06:34:44.430Z,87.80
2019-03-21T06:35:46.503Z,87.40
2019-03-21T06:36:48.314Z,88.20
2019-03-21T06:37:50.560Z,77.00
2019-03-21T06:38:52.638Z,81.60
2019-03-21T06:39:54.410Z,82.40
2019-03-21T06:40:56.754Z,81.40
2019-03-21T06:41:58.856Z,79.80
2019-03-21T06:43:00.710Z,73.60
2019-03-21T06:44:03.506Z,74.20
2019-03-21T06:45:05.896Z,71.20
2019-03-21T06:46:08.215Z,75.20
2019-03-21T06:47:10.410Z,76.00
2019-03-21T06:48:12.694Z,77.20
2019-03-21T06:49:14.790Z,73.20
2019-03-21T06:50:17.257Z,77.40
2019-03-21T06:51:19.361Z,73.00
2019-03-21T06:52:21.200Z,69.00
2019-03-21T06:53:23.223Z,72.60
2019-03-21T06:54:25.397Z,67.20
2019-03-21T06:55:28.133Z,69.00
2019-03-21T06:56:30.449Z,70.20
2019-03-21T06:57:32.533Z,69.80
2019-03-21T06:58:34.740Z,69.60
2019-03-21T06:59:37.035Z,74.00
2019-03-21T07:00:39.186Z,74.20
2019-03-21T07:01:41.427Z,72.80
2019-03-21T07:02:43.675Z,69.00
2019-03-21T07:03:46.659Z,69.80
2019-03-21T07:04:48.845Z,68.80
2019-03-21T07:05:51.081Z,75.20
2019-03-21T07:06:53.197Z,83.60
2019-03-21T07:07:55.331Z,80.20
2019-03-21T07:08:57.620Z,78.80
2019-03-21T07:09:59.330Z,78.80
2019-03-21T07:11:01.481Z,72.40
2019-03-21T07:12:03.763Z,72.60
2019-03-21T07:13:05.556Z,73.20
2019-03-21T07:14:07.763Z,73.00
2019-03-21T07:15:10.669Z,72.20
2019-03-21T07:16:12.763Z,71.00
2019-03-21T07:17:14.725Z,72.80
2019-03-21T07:18:16.923Z,73.00
2019-03-21T07:19:19.344Z,76.60
2019-03-21T07:20:21.752Z,69.40
2019-03-21T07:21:23.982Z,70.00
2019-03-21T07:22:26.018Z,63.00
2019-03-21T07:23:28.069Z,59.80
2019-03-21T07:24:30.085Z,61.40
2019-03-21T07:25:33.642Z,56.00
2019-03-21T07:26:35.980Z,58.20
2019-03-21T07:27:37.730Z,53.00
2019-03-21T07:28:40.176Z,52.20
2019-03-21T07:29:42.565Z,52.00
2019-03-21T07:30:44.706Z,52.00
2019-03-21T07:31:46.684Z,52.80
2019-03-21T07:32:48.934Z,49.60
2019-03-21T07:33:50.688Z,49.80
2019-03-21T07:34:52.915Z,48.20
2019-03-21T07:35:54.976Z,47.80
2019-03-21T07:36:56.768Z,48.40
2019-03-21T07:37:59.148Z,49.80
2019-03-21T07:39:01.483Z,47.20
2019-03-21T07:40:11.795Z,47.00
2019-03-21T07:41:13.941Z,47.60
2019-03-21T07:42:16.034Z,49.00
2019-03-21T07:43:17.878Z,47.80
2019-03-21T07:44:20.058Z,49.40
2019-03-21T07:45:22.136Z,47.60
2019-03-21T07:46:24.702Z,45.20
2019-03-21T07:47:28.250Z,47.80
2019-03-21T07:48:30.288Z,47.20
2019-03-21T07:49:32.869Z,46.80
2019-03-21T07:50:35.129Z,46.00
2019-03-21T07:51:36.928Z,45.60
2019-03-21T07:52:39.238Z,46.60
2019-03-21T07:53:41.590Z,45.20
2019-03-21T07:54:43.413Z,47.00
2019-03-21T07:55:45.649Z,44.20
2019-03-21T07:56:47.791Z,46.00
2019-03-21T07:57:49.865Z,46.40
2019-03-21T07:58:52.979Z,47.00
2019-03-21T07:59:55.238Z,45.80
2019-03-21T08:00:57.383Z,47.80
2019-03-21T08:01:59.707Z,45.20
2019-03-21T08:03:01.891Z,45.00
2019-03-21T08:04:04.003Z,45.40
2019-03-21T08:05:08.218Z,44.80
2019-03-21T08:06:10.509Z,43.80
2019-03-21T08:07:12.485Z,45.40
2019-03-21T08:08:14.708Z,45.00
2019-03-21T08:09:16.787Z,46.80
2019-03-21T08:10:18.717Z,45.40
2019-03-21T08:11:20.981Z,45.20
2019-03-21T08:12:23.046Z,45.00
2019-03-21T08:13:24.900Z,44.60
2019-03-21T08:14:27.058Z,44.00
2019-03-21T08:15:29.170Z,44.20
2019-03-21T08:16:30.894Z,45.00
2019-03-21T08:17:33.298Z,44.00
2019-03-21T08:18:35.432Z,44.60
2019-03-21T08:19:37.402Z,46.00
2019-03-21T08:20:39.518Z,42.60
2019-03-21T08:21:42.607Z,44.60
2019-03-21T08:22:44.842Z,46.80
2019-03-21T08:23:47.022Z,46.20
2019-03-21T08:24:49.074Z,43.00
2019-03-21T08:25:51.485Z,45.20
2019-03-21T08:26:54.600Z,44.80
2019-03-21T08:27:56.673Z,43.00
2019-03-21T08:28:58.687Z,43.00
2019-03-21T08:30:00.770Z,43.80
2019-03-21T08:31:08.309Z,46.60
2019-03-21T08:32:10.424Z,43.00
2019-03-21T08:33:12.386Z,43.20
2019-03-21T08:34:14.376Z,45.20
2019-03-21T08:35:16.326Z,39.80
2019-03-21T08:36:18.462Z,43.00
2019-03-21T08:37:20.584Z,44.40
2019-03-21T08:38:23.741Z,45.40
2019-03-21T08:39:25.976Z,46.00
2019-03-21T08:40:28.285Z,46.80
2019-03-21T08:41:30.311Z,49.40
2019-03-21T08:42:33.319Z,48.60
2019-03-21T08:43:35.443Z,43.00
2019-03-21T08:44:37.562Z,43.40
2019-03-21T08:45:39.681Z,44.20
2019-03-21T08:46:42.031Z,50.20
2019-03-21T08:47:44.213Z,45.00
2019-03-21T08:48:46.035Z,43.40
2019-03-21T08:49:48.095Z,43.00
2019-03-21T08:50:50.561Z,42.60
2019-03-21T08:51:52.587Z,47.20
2019-03-21T08:52:54.597Z,47.00
2019-03-21T08:53:56.943Z,39.60
2019-03-21T08:54:58.722Z,41.40
2019-03-21T08:56:00.949Z,42.00
2019-03-21T08:57:03.358Z,43.40
2019-03-21T08:58:05.437Z,39.60
2019-03-21T08:59:07.458Z,41.00
2019-03-21T09:00:14.133Z,41.60
2019-03-21T09:01:15.822Z,42.60
2019-03-21T09:02:17.772Z,42.60
2019-03-21T09:03:19.776Z,43.60
2019-03-21T09:04:21.855Z,42.80
2019-03-21T09:05:24.145Z,40.80
2019-03-21T09:06:26.455Z,39.80
2019-03-21T09:07:28.818Z,39.40
2019-03-21T09:08:31.039Z,42.00
2019-03-21T09:09:33.308Z,40.80
2019-03-21T09:10:35.519Z,41.20
2019-03-21T09:11:37.994Z,39.60
2019-03-21T09:12:42.527Z,42.60
2019-03-21T09:13:43.982Z,39.60
2019-03-21T09:14:46.306Z,46.00
2019-03-21T09:15:48.654Z,42.40
2019-03-21T09:16:50.744Z,43.40
2019-03-21T09:17:55.418Z,41.20
2019-03-21T09:18:56.790Z,40.60
2019-03-21T09:19:58.813Z,40.60
2019-03-21T09:21:00.986Z,38.20
2019-03-21T09:22:03.189Z,42.60
2019-03-21T09:23:05.566Z,42.00
2019-03-21T09:24:07.690Z,38.60
2019-03-21T09:25:09.636Z,42.00
2019-03-21T09:26:11.996Z,41.40
2019-03-21T09:27:14.094Z,42.00
2019-03-21T09:28:15.860Z,43.40
2019-03-21T09:29:18.074Z,36.80
2019-03-21T09:30:20.204Z,38.80
2019-03-21T09:31:22.915Z,41.80
2019-03-21T09:32:25.210Z,42.40
2019-03-21T09:33:27.389Z,38.60
2019-03-21T09:34:29.345Z,41.00
2019-03-21T09:35:31.435Z,39.40
2019-03-21T09:36:33.364Z,38.80
2019-03-21T09:37:35.327Z,40.80
2019-03-21T09:38:37.784Z,38.80
2019-03-21T09:39:39.571Z,39.00
2019-03-21T09:40:41.566Z,39.80
2019-03-21T09:41:44.565Z,37.80
2019-03-21T09:42:47.012Z,37.60
2019-03-21T09:43:50.404Z,39.60
2019-03-21T09:44:52.495Z,37.20
2019-03-21T09:45:54.742Z,38.20
2019-03-21T09:46:57.026Z,38.40
2019-03-21T09:48:00.214Z,36.00
2019-03-21T09:49:02.108Z,40.60
2019-03-21T09:50:06.100Z,35.20
2019-03-21T09:51:08.027Z,39.60
2019-03-21T09:52:10.553Z,37.60
2019-03-21T09:53:12.869Z,39.00
2019-03-21T09:54:14.981Z,39.60
2019-03-21T09:55:17.032Z,37.80
2019-03-21T09:56:19.429Z,40.20
2019-03-21T09:57:21.352Z,39.80
2019-03-21T09:58:23.918Z,38.20
2019-03-21T09:59:25.888Z,46.20
2019-03-21T10:00:30.766Z,39.60
2019-03-21T10:01:32.662Z,39.40
2019-03-21T10:02:34.819Z,42.60
2019-03-21T10:03:36.958Z,38.40
2019-03-21T10:04:38.948Z,42.20
2019-03-21T10:05:41.074Z,40.20
2019-03-21T10:06:43.450Z,40.00
2019-03-21T10:07:45.534Z,37.40
2019-03-21T10:08:47.634Z,39.00
2019-03-21T10:09:49.270Z,39.00
2019-03-21T10:10:51.482Z,37.40
2019-03-21T10:11:53.741Z,39.00
2019-03-21T10:12:55.764Z,39.40
2019-03-21T10:13:58.830Z,38.20
2019-03-21T10:15:00.938Z,36.20
2019-03-21T10:16:03.165Z,39.60
2019-03-21T10:17:05.609Z,34.40
2019-03-21T10:18:07.405Z,36.40
2019-03-21T10:19:09.203Z,39.60
2019-03-21T10:20:11.274Z,39.00
2019-03-21T10:21:13.482Z,38.00
2019-03-21T10:22:15.618Z,38.60
2019-03-21T10:23:17.969Z,39.20
2019-03-21T10:24:19.985Z,38.20
2019-03-21T10:25:22.119Z,39.00
2019-03-21T10:27:37.759Z,37.00
2019-03-21T10:28:40.104Z,38.60
2019-03-21T10:29:42.378Z,39.00
2019-03-21T10:30:44.034Z,36.80
2019-03-21T10:31:46.631Z,38.20
2019-03-21T10:32:48.626Z,35.40
2019-03-21T10:33:50.491Z,37.20
2019-03-21T10:34:52.564Z,35.60
2019-03-21T10:35:56.801Z,39.00
2019-03-21T10:36:59.142Z,40.60
2019-03-21T10:38:01.547Z,39.00
2019-03-21T10:39:05.573Z,37.00
2019-03-21T10:40:07.769Z,38.60
2019-03-21T10:41:10.141Z,39.60
2019-03-21T10:42:12.434Z,39.60
2019-03-21T10:43:14.182Z,43.00
2019-03-21T10:44:16.147Z,39.00
2019-03-21T10:45:19.848Z,37.40
2019-03-21T10:46:21.933Z,40.80
2019-03-21T10:47:24.082Z,42.20
2019-03-21T10:48:26.958Z,38.60
2019-03-21T10:49:28.654Z,41.60
2019-03-21T10:50:34.264Z,41.00
2019-03-21T10:51:36.558Z,39.60
2019-03-21T10:52:38.547Z,41.40
2019-03-21T10:53:40.517Z,38.60
2019-03-21T10:54:45.824Z,39.60
2019-03-21T10:55:47.860Z,41.60
2019-03-21T10:56:50.066Z,42.60
2019-03-21T10:57:52.664Z,41.00
2019-03-21T10:58:55.934Z,34.00
2019-03-21T11:00:01.468Z,36.60
2019-03-21T11:01:02.961Z,36.00
2019-03-21T11:02:07.464Z,34.40
2019-03-21T11:03:09.626Z,34.20
2019-03-21T11:04:11.763Z,35.40
2019-03-21T11:05:14.170Z,35.60
2019-03-21T11:06:16.396Z,36.00
2019-03-21T11:07:17.795Z,35.20
2019-03-21T11:08:19.987Z,36.40
2019-03-21T11:09:21.686Z,36.20
2019-03-21T11:10:24.390Z,35.80
2019-03-21T11:11:26.418Z,37.80
2019-03-21T11:12:29.226Z,34.40
2019-03-21T11:13:31.969Z,35.40
2019-03-21T11:14:34.259Z,34.40
2019-03-21T11:15:36.493Z,38.20
2019-03-21T11:16:38.568Z,32.20
2019-03-21T11:17:41.247Z,35.00
2019-03-21T11:18:43.400Z,40.80
2019-03-21T11:19:46.424Z,38.00
2019-03-21T11:20:48.753Z,38.60
2019-03-21T11:21:51.149Z,38.20
2019-03-21T11:22:55.756Z,39.00
2019-03-21T11:23:58.073Z,40.20
2019-03-21T11:24:59.819Z,37.60
2019-03-21T11:26:02.135Z,37.60
2019-03-21T11:27:04.703Z,36.00
2019-03-21T11:28:08.335Z,36.00
2019-03-21T11:29:10.453Z,30.60
2019-03-21T11:30:18.196Z,32.80
2019-03-21T11:31:20.027Z,35.20
2019-03-21T11:32:22.186Z,34.60
2019-03-21T11:33:23.974Z,36.00
2019-03-21T11:34:27.174Z,37.00
2019-03-21T11:35:30.367Z,33.40
2019-03-21T11:36:38.042Z,35.00
2019-03-21T11:37:36.716Z,36.00
2019-03-21T11:38:38.664Z,35.20
2019-03-21T11:39:40.458Z,38.40
2019-03-21T11:40:44.019Z,35.00
2019-03-21T11:41:46.214Z,34.00
2019-03-21T11:42:48.282Z,38.00
2019-03-21T11:43:50.317Z,32.80
2019-03-21T11:44:52.548Z,34.80
2019-03-21T11:45:55.396Z,33.40
2019-03-21T11:46:58.044Z,32.20
2019-03-21T11:48:01.619Z,38.60
2019-03-21T11:49:03.488Z,35.00
2019-03-21T11:50:06.147Z,39.20
2019-03-21T11:51:08.623Z,38.00
2019-03-21T11:52:18.151Z,36.40
2019-03-21T11:53:14.668Z,39.20
2019-03-21T11:54:17.015Z,38.40
2019-03-21T11:55:19.326Z,38.80
2019-03-21T11:56:21.609Z,38.80
2019-03-21T11:57:23.712Z,36.80
2019-03-21T11:58:26.072Z,35.00
2019-03-21T11:59:38.437Z,38.40
2019-03-21T12:00:42.787Z,35.40
2019-03-21T12:01:36.271Z,36.00
2019-03-21T12:02:38.444Z,36.60
2019-03-21T12:03:40.467Z,35.80
2019-03-21T12:04:42.819Z,35.00
2019-03-21T12:05:44.921Z,37.80
2019-03-21T12:06:47.643Z,35.00
2019-03-21T12:07:49.659Z,35.60
2019-03-21T12:08:51.639Z,38.00
2019-03-21T12:09:54.013Z,37.20
2019-03-21T12:10:56.083Z,33.00
2019-03-21T12:11:58.333Z,36.00
2019-03-21T12:13:00.351Z,35.00
2019-03-21T12:14:04.185Z,34.20
2019-03-21T12:15:09.093Z,35.40
2019-03-21T12:16:11.055Z,38.00
2019-03-21T12:17:13.133Z,36.80
2019-03-21T12:18:15.331Z,36.60
2019-03-21T12:19:17.046Z,36.20
2019-03-21T12:20:27.542Z,33.20
2019-03-21T12:21:29.545Z,32.00
2019-03-21T12:22:31.475Z,32.20
2019-03-21T12:23:33.478Z,30.80
2019-03-21T12:24:35.287Z,33.60
2019-03-21T12:25:37.670Z,36.20
2019-03-21T12:26:39.655Z,34.60
2019-03-21T12:27:41.541Z,31.80
2019-03-21T12:28:43.589Z,36.00
2019-03-21T12:29:46.070Z,36.20
2019-03-21T12:30:48.398Z,34.60
2019-03-21T12:31:50.473Z,36.60
2019-03-21T12:32:52.584Z,35.40
2019-03-21T12:33:54.572Z,34.80
2019-03-21T12:34:56.729Z,34.00
2019-03-21T12:35:59.208Z,35.40
2019-03-21T12:37:01.348Z,37.20
2019-03-21T12:38:03.756Z,35.40
2019-03-21T12:39:07.538Z,33.20
2019-03-21T12:40:10.383Z,33.60
2019-03-21T12:41:12.690Z,35.40
2019-03-21T12:42:14.976Z,32.20
2019-03-21T12:43:17.164Z,35.60
2019-03-21T12:44:19.278Z,37.20
2019-03-21T12:45:21.755Z,31.60
2019-03-21T12:46:23.994Z,30.40
2019-03-21T12:47:31.142Z,30.80
2019-03-21T12:48:30.231Z,31.80
2019-03-21T12:49:32.383Z,32.60
2019-03-21T12:50:34.619Z,34.80
2019-03-21T12:51:37.095Z,36.00
2019-03-21T12:52:41.520Z,32.00
2019-03-21T12:53:43.269Z,37.20
2019-03-21T12:54:45.767Z,35.20
2019-03-21T12:55:47.867Z,29.80
2019-03-21T12:56:49.726Z,34.00
2019-03-21T12:57:53.859Z,35.20
2019-03-21T12:58:55.848Z,31.60
2019-03-21T12:59:58.093Z,31.00
2019-03-21T13:01:00.024Z,32.60
2019-03-21T13:02:02.014Z,30.40
2019-03-21T13:03:04.971Z,31.20
2019-03-21T13:04:08.202Z,30.60
2019-03-21T13:05:14.579Z,34.40
2019-03-21T13:06:16.603Z,29.00
2019-03-21T13:07:19.198Z,34.00
2019-03-21T13:08:33.110Z,32.40
2019-03-21T13:09:25.681Z,33.00
2019-03-21T13:10:27.912Z,31.80
2019-03-21T13:11:30.033Z,32.80
2019-03-21T13:12:32.850Z,35.20
2019-03-21T13:13:35.043Z,33.40
2019-03-21T13:14:37.470Z,33.00
2019-03-21T13:15:39.624Z,24.00
2019-03-21T13:16:41.660Z,37.60
2019-03-21T13:17:43.713Z,28.20
2019-03-21T13:18:45.631Z,32.80
2019-03-21T13:19:47.588Z,25.20
2019-03-21T13:20:49.824Z,31.60
2019-03-21T13:21:52.022Z,31.40
2019-03-21T13:22:54.215Z,33.00
2019-03-21T13:23:56.395Z,36.20
2019-03-21T13:24:58.165Z,32.00
2019-03-21T13:26:00.465Z,32.00
2019-03-21T13:27:02.755Z,32.00
2019-03-21T13:28:05.213Z,24.40
2019-03-21T13:29:07.274Z,31.40
2019-03-21T13:30:11.978Z,29.40
2019-03-21T13:31:13.982Z,27.00
2019-03-21T13:32:16.387Z,33.00
2019-03-21T13:33:18.434Z,25.20